Time;durP1;ratioP1;P1;durP2;ratioP2;P2;SDS_P1;SDS_P2;PMS_P1;PMS_P2;Temp;Humidity;BMP_temperature;BMP_pressure;BME280_temperature;BME280_humidity;BME280_pressure;Samples;Min_cycle;Max_cycle;Signal;HPM_P1;HPM_P2
2021/12/03 00:00:29;;;;;;;28.77;19.03;;;-0.40;99.90;;;;;;5039141;28;20730;-48
2021/12/03 00:02:55;;;;;;;32.03;19.30;;;-0.40;99.90;;;;;;5056893;28;20662;-44
2021/12/03 00:05:21;;;;;;;31.57;19.63;;;-0.40;99.90;;;;;;5056947;28;20471;-44
2021/12/03 00:07:47;;;;;;;29.53;19.53;;;-0.30;99.90;;;;;;5057016;28;20505;-45
2021/12/03 00:10:15;;;;;;;34.07;20.53;;;-0.30;99.90;;;;;;5038933;28;20676;-44
2021/12/03 00:12:42;;;;;;;29.57;19.50;;;-0.20;99.90;;;;;;5038712;28;20465;-44
2021/12/03 00:15:10;;;;;;;27.73;17.83;;;-0.20;99.90;;;;;;5056612;28;20972;-45
2021/12/03 00:17:38;;;;;;;33.77;20.00;;;-0.10;99.90;;;;;;5056933;28;20453;-45
2021/12/03 00:20:07;;;;;;;29.70;19.37;;;-0.10;99.90;;;;;;5056813;28;20442;-44
2021/12/03 00:22:33;;;;;;;35.37;21.83;;;0.00;99.90;;;;;;5056444;28;20529;-46
2021/12/03 00:24:58;;;;;;;31.13;20.37;;;0.00;99.90;;;;;;5057003;28;20522;-46
2021/12/03 00:27:24;;;;;;;32.80;20.13;;;0.00;99.90;;;;;;5056789;28;20243;-45
2021/12/03 00:29:50;;;;;;;30.33;18.83;;;0.10;99.90;;;;;;5056406;28;20257;-46
2021/12/03 00:32:15;;;;;;;30.30;19.33;;;0.10;99.90;;;;;;5038973;28;20214;-41
2021/12/03 00:34:41;;;;;;;31.57;19.27;;;0.10;99.90;;;;;;5038678;28;20184;-39
2021/12/03 00:37:07;;;;;;;37.37;21.33;;;0.20;99.90;;;;;;5056438;28;20176;-43
2021/12/03 00:39:32;;;;;;;31.83;19.37;;;0.20;99.90;;;;;;5056362;28;20222;-40
2021/12/03 00:42:01;;;;;;;32.03;19.67;;;0.20;99.90;;;;;;5056107;28;20541;-39
2021/12/03 00:44:29;;;;;;;34.87;18.77;;;0.20;99.90;;;;;;5056820;28;20207;-40
2021/12/03 00:46:55;;;;;;;33.23;19.30;;;0.20;99.90;;;;;;5056310;28;20549;-39
2021/12/03 00:49:21;;;;;;;31.87;18.17;;;0.20;99.90;;;;;;5056690;28;20774;-39
2021/12/03 00:51:47;;;;;;;38.70;21.13;;;0.30;99.90;;;;;;5056350;28;20430;-39
2021/12/03 00:54:13;;;;;;;31.90;18.13;;;0.30;99.90;;;;;;5055969;28;20211;-41
2021/12/03 00:56:39;;;;;;;33.20;18.97;;;0.30;99.90;;;;;;5038080;28;20386;-41
2021/12/03 00:59:05;;;;;;;36.67;19.67;;;0.30;99.90;;;;;;5055163;28;20415;-39
2021/12/03 01:01:31;;;;;;;34.80;19.43;;;0.40;99.90;;;;;;5056265;28;20828;-40
2021/12/03 01:03:57;;;;;;;31.37;18.87;;;0.30;99.90;;;;;;5055812;28;20214;-39
2021/12/03 01:06:22;;;;;;;30.77;17.80;;;0.40;99.90;;;;;;5056062;28;20180;-39
2021/12/03 01:08:48;;;;;;;37.77;18.53;;;0.40;99.90;;;;;;5056086;28;20414;-39
2021/12/03 01:11:15;;;;;;;34.73;19.63;;;0.40;99.90;;;;;;5055516;28;20567;-39
2021/12/03 01:13:42;;;;;;;37.60;18.67;;;0.40;99.90;;;;;;5055981;28;20231;-40
2021/12/03 01:16:10;;;;;;;32.77;17.53;;;0.40;99.90;;;;;;5055644;28;20418;-42
2021/12/03 01:18:36;;;;;;;35.80;17.73;;;0.50;99.90;;;;;;5038082;28;20441;-40
2021/12/03 01:21:03;;;;;;;33.00;17.23;;;0.50;99.90;;;;;;5038744;28;20835;-39
2021/12/03 01:23:30;;;;;;;42.67;18.27;;;0.50;99.90;;;;;;5055407;28;20434;-43
2021/12/03 01:25:55;;;;;;;38.40;17.07;;;0.60;99.90;;;;;;5055591;28;20430;-40
2021/12/03 01:28:22;;;;;;;41.10;18.27;;;0.60;99.90;;;;;;5055882;28;20417;-41
2021/12/03 01:30:48;;;;;;;34.27;17.00;;;0.60;99.90;;;;;;5055194;28;20546;-41
2021/12/03 01:33:14;;;;;;;34.80;14.30;;;0.60;99.90;;;;;;5055323;28;20461;-42
2021/12/03 01:35:40;;;;;;;25.83;14.93;;;0.70;99.90;;;;;;5055388;28;20423;-42
2021/12/03 01:38:07;;;;;;;26.87;11.63;;;0.70;99.90;;;;;;5055235;28;20642;-39
2021/12/03 01:40:34;;;;;;;31.10;14.63;;;0.80;99.90;;;;;;5055366;28;20422;-41
2021/12/03 01:43:01;;;;;;;25.67;15.00;;;0.80;99.90;;;;;;5037173;28;20471;-41
2021/12/03 01:45:30;;;;;;;27.10;13.53;;;0.80;99.90;;;;;;5054943;28;20439;-41
2021/12/03 01:47:59;;;;;;;28.57;14.77;;;0.90;99.90;;;;;;5054969;28;20414;-40
2021/12/03 01:50:28;;;;;;;25.77;12.73;;;0.90;99.90;;;;;;5054924;28;20465;-43
2021/12/03 01:52:55;;;;;;;25.87;13.60;;;0.90;99.90;;;;;;5054752;28;20466;-42
2021/12/03 01:55:20;;;;;;;25.47;13.10;;;0.90;99.90;;;;;;5037057;28;20448;-40
2021/12/03 01:57:46;;;;;;;28.87;14.77;;;1.00;99.90;;;;;;5055021;28;20423;-40
2021/12/03 02:00:27;;;;;;;30.27;15.23;;;1.00;99.90;;;;;;5022052;28;20190;-44
2021/12/03 02:02:54;;;;;;;31.43;14.97;;;1.00;99.90;;;;;;5056834;28;20246;-45
2021/12/03 02:05:20;;;;;;;27.40;14.53;;;1.00;99.90;;;;;;5056221;28;20450;-46
2021/12/03 02:07:47;;;;;;;41.47;15.07;;;1.00;99.90;;;;;;5056318;28;20410;-45
2021/12/03 02:10:15;;;;;;;27.47;14.87;;;1.00;99.90;;;;;;5037200;28;20801;-45
2021/12/03 02:12:41;;;;;;;30.87;15.30;;;1.00;99.90;;;;;;5054651;28;20458;-45
2021/12/03 02:15:07;;;;;;;34.87;15.17;;;1.10;99.90;;;;;;5054771;28;20423;-47
2021/12/03 02:17:33;;;;;;;27.10;14.67;;;1.10;99.90;;;;;;5054298;28;20180;-45
2021/12/03 02:19:59;;;;;;;30.53;15.97;;;1.10;99.90;;;;;;5054341;28;20412;-45
2021/12/03 02:22:25;;;;;;;28.70;15.03;;;1.10;99.90;;;;;;5054707;28;20458;-46
2021/12/03 02:24:51;;;;;;;33.60;16.57;;;1.20;99.90;;;;;;5057573;28;20426;-46
2021/12/03 02:27:17;;;;;;;33.17;16.63;;;1.20;99.90;;;;;;5055439;28;20421;-41
2021/12/03 02:29:43;;;;;;;21.37;11.80;;;1.20;99.90;;;;;;5054145;28;20264;-39
2021/12/03 02:32:08;;;;;;;18.80;9.93;;;1.30;99.90;;;;;;5054012;28;20309;-42
2021/12/03 02:34:36;;;;;;;25.47;13.97;;;1.30;99.90;;;;;;5054104;28;20265;-41
2021/12/03 02:37:03;;;;;;;27.00;14.67;;;1.30;99.90;;;;;;5036281;28;20176;-40
2021/12/03 02:39:28;;;;;;;23.33;14.33;;;1.40;99.90;;;;;;5054189;28;20407;-42
2021/12/03 02:41:54;;;;;;;29.07;13.50;;;1.40;99.90;;;;;;5053846;28;20447;-42
2021/12/03 02:44:20;;;;;;;25.73;13.97;;;1.40;99.90;;;;;;5054178;28;20184;-43
2021/12/03 02:46:46;;;;;;;28.73;14.43;;;1.40;99.90;;;;;;5054773;28;20263;-41
2021/12/03 02:49:14;;;;;;;28.17;14.43;;;1.40;99.90;;;;;;5053745;28;20443;-40
2021/12/03 02:51:41;;;;;;;25.97;12.97;;;1.40;99.90;;;;;;5053689;28;20192;-42
2021/12/03 02:54:08;;;;;;;28.67;14.60;;;1.40;99.90;;;;;;5053609;28;20447;-43
2021/12/03 02:56:33;;;;;;;23.63;12.73;;;1.40;99.90;;;;;;5054816;28;20415;-41
2021/12/03 02:58:59;;;;;;;26.93;14.80;;;1.40;99.90;;;;;;5053469;28;20408;-39
2021/12/03 03:01:25;;;;;;;27.03;13.97;;;1.40;99.90;;;;;;5053436;28;20196;-40
2021/12/03 03:03:50;;;;;;;30.43;13.57;;;1.40;99.90;;;;;;5053704;28;20180;-41
2021/12/03 03:06:16;;;;;;;26.17;14.20;;;1.40;99.90;;;;;;5053529;28;20189;-39
2021/12/03 03:08:44;;;;;;;22.97;13.47;;;1.40;99.90;;;;;;5053564;28;20188;-40
2021/12/03 03:11:11;;;;;;;24.67;13.93;;;1.40;99.90;;;;;;5053360;28;20207;-41
2021/12/03 03:13:38;;;;;;;26.13;13.40;;;1.50;99.90;;;;;;5035619;28;20462;-40
2021/12/03 03:16:05;;;;;;;26.60;12.07;;;1.50;99.90;;;;;;5053361;28;20417;-41
2021/12/03 03:18:31;;;;;;;25.17;10.90;;;1.50;99.90;;;;;;5053613;28;20447;-42
2021/12/03 03:20:59;;;;;;;20.50;10.60;;;1.50;99.90;;;;;;5053374;28;20442;-39
2021/12/03 03:23:26;;;;;;;19.70;11.07;;;1.60;99.90;;;;;;5053316;28;20939;-40
2021/12/03 03:25:53;;;;;;;27.20;11.27;;;1.60;99.90;;;;;;5053247;28;20415;-38
2021/12/03 03:28:20;;;;;;;26.83;13.10;;;1.70;99.90;;;;;;5053382;28;21027;-39
2021/12/03 03:30:47;;;;;;;26.20;13.97;;;1.70;99.90;;;;;;5053164;28;20411;-41
2021/12/03 03:33:14;;;;;;;20.27;12.43;;;1.70;99.90;;;;;;5053117;28;20454;-39
2021/12/03 03:35:39;;;;;;;29.73;13.83;;;1.70;99.90;;;;;;5053273;28;20407;-41
2021/12/03 03:38:05;;;;;;;20.13;9.57;;;1.80;99.90;;;;;;5018807;28;20872;-41
2021/12/03 03:40:32;;;;;;;16.43;8.53;;;1.80;99.90;;;;;;5035292;28;20204;-41
2021/12/03 03:42:59;;;;;;;28.23;13.50;;;1.80;99.90;;;;;;5053113;28;20519;-40
2021/12/03 03:45:27;;;;;;;21.40;12.57;;;1.80;99.90;;;;;;5035333;28;20423;-40
2021/12/03 03:47:53;;;;;;;22.40;11.60;;;1.90;99.90;;;;;;5053324;28;20407;-41
2021/12/03 03:50:20;;;;;;;25.27;13.73;;;1.90;99.90;;;;;;5053629;28;20476;-41
2021/12/03 03:52:47;;;;;;;22.73;11.83;;;1.90;99.90;;;;;;5053094;28;20465;-41
2021/12/03 03:55:16;;;;;;;28.13;15.20;;;1.90;99.90;;;;;;5035706;28;20420;-41
2021/12/03 03:57:42;;;;;;;24.80;13.50;;;1.90;99.90;;;;;;5053297;28;20525;-41
2021/12/03 04:00:10;;;;;;;22.43;11.43;;;1.90;99.90;;;;;;5035218;28;20433;-41
2021/12/03 04:02:36;;;;;;;30.07;15.37;;;1.90;99.90;;;;;;5052875;28;20945;-41
2021/12/03 04:05:02;;;;;;;32.17;15.60;;;1.90;99.90;;;;;;5035011;28;20483;-41
2021/12/03 04:07:28;;;;;;;34.97;14.87;;;1.90;99.90;;;;;;5053149;28;20648;-40
2021/12/03 04:09:54;;;;;;;29.83;14.37;;;1.90;99.90;;;;;;5052862;28;20494;-42
2021/12/03 04:12:19;;;;;;;25.37;12.97;;;1.90;99.90;;;;;;5052850;28;20535;-43
2021/12/03 04:14:45;;;;;;;31.40;14.77;;;1.90;99.90;;;;;;5053135;28;20233;-42
2021/12/03 04:17:11;;;;;;;26.63;14.33;;;1.90;99.90;;;;;;5053149;28;20631;-43
2021/12/03 04:19:36;;;;;;;19.90;10.53;;;1.90;99.90;;;;;;5052851;28;20183;-44
2021/12/03 04:22:03;;;;;;;19.17;9.73;;;1.90;99.90;;;;;;5053087;28;20641;-41
2021/12/03 04:24:29;;;;;;;30.17;13.20;;;2.00;99.90;;;;;;5035093;28;20176;-41
2021/12/03 04:26:55;;;;;;;27.13;14.13;;;1.90;99.90;;;;;;5053150;28;20416;-43
2021/12/03 04:29:20;;;;;;;24.30;13.23;;;2.00;99.90;;;;;;5052714;28;20185;-41
2021/12/03 04:31:46;;;;;;;25.87;14.10;;;2.00;99.90;;;;;;5052802;28;20197;-39
2021/12/03 04:34:12;;;;;;;24.53;12.17;;;1.90;99.90;;;;;;5055374;28;20221;-41
2021/12/03 04:36:37;;;;;;;30.23;14.47;;;2.10;99.90;;;;;;5056692;28;20177;-42
2021/12/03 04:39:03;;;;;;;27.87;13.63;;;2.00;99.90;;;;;;5056561;28;20684;-42
2021/12/03 04:41:29;;;;;;;25.00;13.70;;;2.00;99.90;;;;;;5038357;28;20272;-42
2021/12/03 04:43:55;;;;;;;31.83;14.40;;;2.10;99.90;;;;;;5056439;28;20209;-43
2021/12/03 04:46:22;;;;;;;26.20;14.50;;;2.10;99.90;;;;;;5056144;28;20177;-42
2021/12/03 04:48:49;;;;;;;34.97;15.80;;;2.10;99.90;;;;;;5056188;28;20251;-40
2021/12/03 04:51:15;;;;;;;27.97;14.00;;;2.10;99.90;;;;;;5055997;28;20436;-40
2021/12/03 04:53:41;;;;;;;28.67;14.53;;;2.10;99.90;;;;;;5056132;28;20813;-40
2021/12/03 04:56:07;;;;;;;29.73;14.77;;;2.10;99.90;;;;;;5055940;28;20429;-41
2021/12/03 04:58:33;;;;;;;27.63;14.63;;;2.10;99.90;;;;;;5038092;28;20873;-39
2021/12/03 05:00:59;;;;;;;26.70;15.37;;;2.10;99.90;;;;;;5037739;28;20305;-42
2021/12/03 05:03:26;;;;;;;30.23;14.93;;;2.10;99.90;;;;;;5056054;28;20638;-42
2021/12/03 05:05:58;;;;;;;36.67;16.43;;;2.10;99.90;;;;;;5037853;28;20434;-42
2021/12/03 05:08:25;;;;;;;31.30;14.90;;;2.10;99.90;;;;;;5055756;28;20403;-41
2021/12/03 05:10:51;;;;;;;34.80;16.40;;;2.10;99.90;;;;;;5055823;28;20435;-41
2021/12/03 05:13:23;;;;;;;33.23;16.17;;;2.20;99.90;;;;;;5055816;28;20971;-40
2021/12/03 05:15:49;;;;;;;31.03;14.03;;;2.20;99.90;;;;;;5055601;28;20205;-42
2021/12/03 05:18:17;;;;;;;36.53;15.53;;;2.20;99.90;;;;;;5055747;28;20392;-42
2021/12/03 05:20:43;;;;;;;25.70;14.83;;;2.20;99.90;;;;;;5037493;28;20413;-44
2021/12/03 05:23:09;;;;;;;24.27;14.30;;;2.20;99.90;;;;;;5055373;28;20989;-42
2021/12/03 05:25:36;;;;;;;31.57;16.80;;;2.30;99.90;;;;;;5055649;28;20447;-41
2021/12/03 05:28:02;;;;;;;29.13;15.10;;;2.30;99.90;;;;;;5037461;28;20182;-39
2021/12/03 05:30:28;;;;;;;26.87;15.23;;;2.30;99.90;;;;;;5055304;28;20182;-42
2021/12/03 05:32:55;;;;;;;32.13;16.03;;;2.30;99.90;;;;;;5055177;28;20458;-40
2021/12/03 05:35:21;;;;;;;34.77;16.17;;;2.30;99.90;;;;;;5037663;28;20513;-40
2021/12/03 05:37:47;;;;;;;33.13;13.20;;;2.30;99.90;;;;;;5055412;28;20437;-41
2021/12/03 05:40:14;;;;;;;30.30;13.30;;;2.30;99.90;;;;;;5055346;28;20466;-40
2021/12/03 05:42:40;;;;;;;39.10;15.53;;;2.30;99.90;;;;;;5054976;28;20858;-40
2021/12/03 05:45:08;;;;;;;29.70;14.77;;;2.40;99.90;;;;;;5054960;28;20471;-43
2021/12/03 05:47:34;;;;;;;30.27;13.63;;;2.40;99.90;;;;;;5055517;28;20618;-41
2021/12/03 05:49:59;;;;;;;25.83;12.40;;;2.40;99.90;;;;;;5055189;28;20451;-41
2021/12/03 05:52:25;;;;;;;27.17;14.10;;;2.40;99.90;;;;;;5055308;28;20231;-41
2021/12/03 05:54:51;;;;;;;27.57;10.30;;;2.40;99.90;;;;;;5055192;28;20208;-41
2021/12/03 05:57:17;;;;;;;15.63;9.67;;;2.40;99.90;;;;;;5055093;28;20181;-42
2021/12/03 05:59:43;;;;;;;25.73;13.13;;;2.40;99.90;;;;;;5054668;28;20661;-41
2021/12/03 06:02:09;;;;;;;25.97;11.57;;;2.50;99.90;;;;;;5054661;28;20198;-42
2021/12/03 06:04:35;;;;;;;22.63;11.17;;;2.50;99.90;;;;;;5036789;28;20204;-42
2021/12/03 06:07:00;;;;;;;14.17;7.70;;;2.50;99.90;;;;;;5054488;28;20269;-42
2021/12/03 06:09:26;;;;;;;24.43;9.17;;;2.50;99.90;;;;;;5054363;28;20439;-40
2021/12/03 06:11:53;;;;;;;16.03;6.83;;;2.50;99.90;;;;;;5054741;28;20246;-42
2021/12/03 06:14:19;;;;;;;7.97;5.57;;;2.50;99.90;;;;;;5036444;28;20209;-42
2021/12/03 06:16:44;;;;;;;20.03;8.53;;;2.60;99.90;;;;;;5054142;28;20467;-42
2021/12/03 06:19:10;;;;;;;13.67;7.30;;;2.50;99.90;;;;;;5054502;28;20186;-42
2021/12/03 06:21:35;;;;;;;19.43;8.47;;;2.60;99.90;;;;;;5054905;28;20566;-41
2021/12/03 06:24:01;;;;;;;13.43;7.30;;;2.60;99.90;;;;;;5054400;28;20200;-38
2021/12/03 06:26:27;;;;;;;16.40;5.60;;;2.60;99.90;;;;;;5054299;28;20185;-40
2021/12/03 06:28:53;;;;;;;15.60;5.90;;;2.60;99.90;;;;;;5054471;28;20581;-41
2021/12/03 06:31:18;;;;;;;20.33;7.53;;;2.60;99.90;;;;;;5054303;28;20631;-43
2021/12/03 06:33:44;;;;;;;19.80;7.03;;;2.60;99.90;;;;;;5053953;28;20257;-43
2021/12/03 06:36:10;;;;;;;23.27;7.33;;;2.60;99.90;;;;;;5054294;28;20582;-43
2021/12/03 06:38:38;;;;;;;12.37;5.67;;;2.60;99.90;;;;;;5054219;28;20573;-40
2021/12/03 06:41:05;;;;;;;19.23;7.03;;;2.60;99.90;;;;;;5053840;28;20196;-42
2021/12/03 06:43:31;;;;;;;18.77;6.30;;;2.50;99.90;;;;;;5054080;28;20854;-40
2021/12/03 06:45:56;;;;;;;18.80;7.57;;;2.50;99.90;;;;;;5053934;28;20495;-39
2021/12/03 06:48:22;;;;;;;13.27;6.57;;;2.50;99.90;;;;;;5054617;28;20185;-40
2021/12/03 06:50:50;;;;;;;21.33;7.40;;;2.50;99.90;;;;;;5054081;28;20181;-40
2021/12/03 06:53:17;;;;;;;19.60;7.23;;;2.40;99.90;;;;;;5053896;28;20440;-41
2021/12/03 06:55:48;;;;;;;16.03;5.50;;;2.40;99.90;;;;;;5053196;28;20416;-41
2021/12/03 06:58:17;;;;;;;19.37;9.80;;;2.40;99.90;;;;;;5053918;28;20489;-39
2021/12/03 07:00:45;;;;;;;19.40;8.13;;;2.40;99.90;;;;;;5053672;28;20217;-40
2021/12/03 07:03:10;;;;;;;17.00;8.03;;;2.40;99.90;;;;;;5053556;28;20420;-40
2021/12/03 07:05:37;;;;;;;14.80;7.03;;;2.40;99.90;;;;;;5053839;28;20188;-41
2021/12/03 07:08:03;;;;;;;9.87;4.07;;;2.40;99.90;;;;;;5053793;28;20178;-41
2021/12/03 07:10:29;;;;;;;18.73;8.23;;;2.40;99.90;;;;;;5036029;28;20421;-40
2021/12/03 07:12:55;;;;;;;12.97;5.00;;;2.30;99.90;;;;;;5053249;28;20545;-41
2021/12/03 07:15:20;;;;;;;18.10;7.33;;;2.40;99.90;;;;;;5053721;28;20252;-41
2021/12/03 07:17:50;;;;;;;17.43;6.63;;;2.30;99.90;;;;;;5053720;28;20533;-42
2021/12/03 07:20:16;;;;;;;15.70;7.33;;;2.30;99.90;;;;;;5053445;28;20174;-40
2021/12/03 07:22:42;;;;;;;14.60;6.13;;;2.30;99.90;;;;;;5053181;28;20625;-42
2021/12/03 07:25:08;;;;;;;15.07;5.83;;;2.30;99.90;;;;;;5053398;28;20466;-39
2021/12/03 07:27:34;;;;;;;11.50;4.83;;;2.30;99.90;;;;;;5053532;28;20641;-40
2021/12/03 07:30:00;;;;;;;13.57;5.17;;;2.30;99.90;;;;;;5053582;28;20496;-40
2021/12/03 07:32:27;;;;;;;16.60;7.00;;;2.30;99.90;;;;;;5035299;28;20216;-40
2021/12/03 07:34:53;;;;;;;16.40;6.73;;;2.30;99.90;;;;;;5053502;28;20312;-40
2021/12/03 07:37:19;;;;;;;14.90;5.87;;;2.30;99.90;;;;;;5035493;28;20947;-43
2021/12/03 07:39:44;;;;;;;9.47;5.10;;;2.30;99.90;;;;;;5053444;28;20615;-45
2021/12/03 07:42:10;;;;;;;16.90;5.40;;;2.30;99.90;;;;;;5035112;28;20295;-44
2021/12/03 07:44:36;;;;;;;11.73;4.67;;;2.30;99.90;;;;;;5053086;28;20181;-45
2021/12/03 07:47:02;;;;;;;18.37;5.60;;;2.30;99.90;;;;;;5053320;28;20563;-46
2021/12/03 07:49:28;;;;;;;19.27;5.80;;;2.30;99.90;;;;;;5053246;28;20215;-45
2021/12/03 07:51:54;;;;;;;11.43;4.17;;;2.30;99.90;;;;;;5053035;28;20665;-45
2021/12/03 07:54:21;;;;;;;18.30;5.40;;;2.40;99.90;;;;;;5052866;28;20209;-45
2021/12/03 07:56:46;;;;;;;12.63;5.10;;;2.30;99.90;;;;;;5053326;28;20206;-45
2021/12/03 07:59:12;;;;;;;21.87;6.60;;;2.30;99.90;;;;;;5053161;28;20436;-45
2021/12/03 08:01:42;;;;;;;13.00;5.07;;;2.40;99.90;;;;;;5052893;28;20260;-44
2021/12/03 08:04:08;;;;;;;28.33;5.83;;;2.30;99.90;;;;;;5053178;28;20419;-45
2021/12/03 08:06:36;;;;;;;13.47;5.00;;;2.40;99.90;;;;;;5053192;28;20186;-46
2021/12/03 08:09:02;;;;;;;16.57;5.80;;;2.40;99.90;;;;;;5055551;28;20191;-47
2021/12/03 08:11:28;;;;;;;12.50;5.23;;;2.40;99.90;;;;;;5056901;28;20437;-46
2021/12/03 08:13:53;;;;;;;18.70;4.83;;;2.40;99.90;;;;;;5056727;28;20460;-49
2021/12/03 08:16:19;;;;;;;11.33;3.40;;;2.40;99.90;;;;;;5056739;28;20220;-46
2021/12/03 08:18:45;;;;;;;20.67;5.93;;;2.40;99.90;;;;;;5056726;28;20178;-47
2021/12/03 08:21:11;;;;;;;13.87;5.03;;;2.40;99.90;;;;;;5056628;28;20235;-46
2021/12/03 08:23:36;;;;;;;12.17;5.53;;;2.50;99.90;;;;;;5038675;28;20588;-46
2021/12/03 08:26:02;;;;;;;20.47;6.00;;;2.50;99.90;;;;;;5057086;28;20188;-46
2021/12/03 08:28:28;;;;;;;12.27;4.50;;;2.50;99.90;;;;;;5056550;28;20572;-45
2021/12/03 08:30:54;;;;;;;15.77;5.83;;;2.50;99.90;;;;;;5056365;28;20226;-45
2021/12/03 08:33:19;;;;;;;11.57;5.30;;;2.50;99.90;;;;;;5056597;28;20206;-46
2021/12/03 08:35:45;;;;;;;9.27;4.03;;;2.50;99.90;;;;;;5038412;28;20195;-45
2021/12/03 08:38:11;;;;;;;12.80;4.93;;;2.60;99.90;;;;;;5056525;28;20188;-45
2021/12/03 08:40:37;;;;;;;15.40;5.83;;;2.60;99.90;;;;;;5056234;28;20187;-45
2021/12/03 08:43:02;;;;;;;21.50;5.67;;;2.60;99.90;;;;;;5056235;28;20182;-46
2021/12/03 08:45:28;;;;;;;13.67;4.73;;;2.60;99.90;;;;;;5056293;28;20178;-47
2021/12/03 08:47:58;;;;;;;14.53;4.60;;;2.60;99.90;;;;;;5056007;28;20190;-46
2021/12/03 08:50:30;;;;;;;19.27;6.00;;;2.70;99.90;;;;;;5038197;28;20178;-45
2021/12/03 08:53:20;;;;;;;13.03;4.73;;;2.60;99.90;;;;;;5056078;28;20473;-46
2021/12/03 08:55:46;;;;;;;12.40;5.20;;;2.70;99.90;;;;;;5056245;28;20400;-47
2021/12/03 08:58:14;;;;;;;18.23;6.47;;;2.70;99.90;;;;;;5038141;28;20454;-47
2021/12/03 09:00:40;;;;;;;4.90;2.93;;;2.80;99.90;;;;;;5055898;28;20241;-45
2021/12/03 09:03:06;;;;;;;19.60;5.53;;;2.80;99.90;;;;;;5055836;28;20421;-46
2021/12/03 09:05:35;;;;;;;24.27;5.53;;;2.80;99.90;;;;;;5056431;28;20208;-44
2021/12/03 09:08:01;;;;;;;20.77;6.30;;;2.80;99.90;;;;;;5055812;28;20184;-45
2021/12/03 09:10:27;;;;;;;10.57;4.03;;;2.80;99.90;;;;;;5055771;28;20702;-46
2021/12/03 09:12:53;;;;;;;12.73;5.40;;;2.90;99.90;;;;;;5055480;28;20215;-45
2021/12/03 09:15:26;;;;;;;11.13;3.87;;;2.90;99.90;;;;;;5055650;28;20189;-46
2021/12/03 09:18:12;;;;;;;11.57;3.37;;;2.90;99.90;;;;;;5055834;28;20617;-46
2021/12/03 09:20:51;;;;;;;7.93;3.63;;;2.90;99.90;;;;;;5055471;28;20549;-47
2021/12/03 09:23:47;;;;;;;13.27;3.73;;;2.90;99.90;;;;;;5037409;28;20444;-45
2021/12/03 09:26:07;;;;;;;7.77;2.57;;;2.90;99.90;;;;;;5054993;28;20201;-45
2021/12/03 09:28:34;;;;;;;16.43;4.37;;;3.00;99.90;;;;;;5055198;28;20424;-45
2021/12/03 09:31:00;;;;;;;13.97;4.57;;;3.00;99.90;;;;;;5055427;28;20432;-45
2021/12/03 09:33:28;;;;;;;11.43;3.40;;;3.00;99.90;;;;;;5055320;28;20211;-46
2021/12/03 09:35:58;;;;;;;8.83;3.50;;;3.10;99.90;;;;;;5038115;28;20182;-44
2021/12/03 09:38:25;;;;;;;4.03;1.73;;;3.10;99.90;;;;;;5055337;28;20803;-42
2021/12/03 09:40:51;;;;;;;9.90;3.67;;;3.10;99.90;;;;;;5055343;28;20663;-39
2021/12/03 09:43:17;;;;;;;6.93;2.70;;;3.10;99.90;;;;;;5054993;28;20413;-42
2021/12/03 09:45:59;;;;;;;11.37;3.67;;;3.20;99.90;;;;;;5055516;28;20185;-41
2021/12/03 09:48:57;;;;;;;7.63;2.83;;;3.20;99.90;;;;;;5037159;28;20201;-41
2021/12/03 09:51:27;;;;;;;5.67;1.87;;;3.20;99.90;;;;;;5037388;28;20624;-39
2021/12/03 09:56:38;;;;;;;12.27;2.80;;;3.30;99.90;;;;;;5055534;28;20170;-40
2021/12/03 10:01:47;;;;;;;17.30;3.87;;;3.40;99.90;;;;;;5054785;28;20469;-41
2021/12/03 10:12:46;;;;;;;9.67;3.43;;;3.50;99.90;;;;;;5054718;28;20206;-42
2021/12/03 10:15:20;;;;;;;6.13;2.87;;;3.50;99.90;;;;;;5054829;28;20247;-42
2021/12/03 10:37:29;;;;;;;8.90;3.30;;;3.80;99.90;;;;;;5009891;28;20240;-39
2021/12/03 10:40:09;;;;;;;11.03;3.30;;;3.90;99.90;;;;;;5036157;28;20860;-43
2021/12/03 10:42:47;;;;;;;13.20;3.60;;;3.90;99.90;;;;;;5054045;28;20226;-41
2021/12/03 10:45:24;;;;;;;8.60;2.17;;;3.90;99.90;;;;;;5054107;28;20251;-43
2021/12/03 10:48:18;;;;;;;8.20;3.27;;;3.90;99.90;;;;;;5054261;28;20170;-43
2021/12/03 10:51:07;;;;;;;8.10;2.30;;;4.00;99.90;;;;;;5054384;28;20240;-40
2021/12/03 10:53:42;;;;;;;11.90;1.97;;;4.00;99.90;;;;;;5054318;28;20624;-41
2021/12/03 10:56:32;;;;;;;6.93;3.53;;;4.00;99.90;;;;;;5054265;28;20251;-41
2021/12/03 10:59:20;;;;;;;7.00;1.90;;;4.10;99.90;;;;;;5054155;28;20193;-40
2021/12/03 11:02:18;;;;;;;12.47;2.87;;;4.10;99.90;;;;;;5035896;28;20196;-41
2021/12/03 11:05:14;;;;;;;3.97;2.13;;;4.10;99.90;;;;;;5053488;28;20552;-40
2021/12/03 11:41:34;;;;;;;4.70;2.50;;;4.50;99.90;;;;;;5053260;28;20207;-42
2021/12/03 13:03:47;;;;;;;4.57;2.70;;;5.00;99.90;;;;;;5055922;28;20209;-43
2021/12/03 14:00:08;;;;;;;3.67;1.87;;;4.90;99.90;;;;;;5054916;28;20717;-43
2021/12/03 14:41:06;;;;;;;2.13;1.70;;;4.80;99.90;;;;;;5054092;28;20541;-42
2021/12/03 14:54:49;;;;;;;2.70;1.63;;;4.80;99.90;;;;;;4992289;28;20236;-38
2021/12/03 15:32:09;;;;;;;5.10;2.00;;;4.50;99.90;;;;;;5053638;28;20651;-40
2021/12/03 15:51:56;;;;;;;5.23;2.27;;;4.50;99.90;;;;;;5053580;28;20196;-42
2021/12/03 16:03:50;;;;;;;5.47;2.00;;;4.50;99.90;;;;;;5052718;28;20792;-41
2021/12/03 16:08:43;;;;;;;2.47;1.40;;;4.50;99.90;;;;;;5052958;28;20238;-41
2021/12/03 16:11:22;;;;;;;1.73;1.50;;;4.50;99.90;;;;;;5053352;28;20204;-40
2021/12/03 16:14:12;;;;;;;3.53;1.80;;;4.50;99.90;;;;;;5053278;28;20576;-41
2021/12/03 16:17:02;;;;;;;5.33;1.80;;;4.50;99.90;;;;;;5052984;28;20160;-42
2021/12/03 16:51:13;;;;;;;1.73;1.50;;;4.60;99.90;;;;;;5056415;28;20246;-43
2021/12/03 16:53:39;;;;;;;2.50;1.30;;;4.70;99.90;;;;;;5038472;28;20188;-40
2021/12/03 16:56:12;;;;;;;3.20;1.70;;;4.60;99.90;;;;;;5056420;28;20214;-42
2021/12/03 16:58:39;;;;;;;3.90;1.80;;;4.70;99.90;;;;;;5038312;28;20175;-42
2021/12/03 17:03:53;;;;;;;2.40;1.63;;;4.60;99.90;;;;;;5056075;28;20278;-42
2021/12/03 17:09:18;;;;;;;1.33;1.23;;;4.60;99.90;;;;;;5056483;28;20684;-43
2021/12/03 17:49:39;;;;;;;3.23;1.40;;;4.60;99.90;;;;;;5055644;28;20187;-41
2021/12/03 17:54:45;;;;;;;3.90;1.43;;;4.60;99.90;;;;;;5054904;28;20196;-41
2021/12/03 17:57:33;;;;;;;2.27;1.70;;;4.60;99.90;;;;;;5055083;28;20520;-41
2021/12/03 18:00:00;;;;;;;1.83;1.40;;;4.50;99.90;;;;;;5036896;28;20239;-41
2021/12/03 18:05:11;;;;;;;1.67;1.40;;;4.50;99.90;;;;;;5054776;28;20570;-43
2021/12/03 18:13:11;;;;;;;2.03;1.30;;;4.50;99.90;;;;;;5054846;28;20266;-47
2021/12/03 18:45:39;;;;;;;1.90;1.30;;;4.50;99.90;;;;;;5054344;28;20560;-47
2021/12/03 18:55:54;;;;;;;1.00;0.90;;;4.50;99.90;;;;;;5054418;28;20192;-43
2021/12/03 18:58:23;;;;;;;1.00;0.90;;;4.60;99.90;;;;;;5054107;28;20252;-41
2021/12/03 19:00:48;;;;;;;1.10;1.00;;;4.60;99.90;;;;;;5053740;28;20195;-42
2021/12/03 19:08:16;;;;;;;1.27;1.17;;;4.60;99.90;;;;;;5054260;28;20609;-42
2021/12/03 19:10:47;;;;;;;1.60;0.90;;;4.60;99.90;;;;;;5053778;28;20236;-40
2021/12/03 19:13:20;;;;;;;1.37;1.10;;;4.60;99.90;;;;;;5053715;28;20188;-43
2021/12/03 19:15:48;;;;;;;0.93;0.87;;;4.60;99.90;;;;;;5053855;28;20239;-41
2021/12/03 19:18:14;;;;;;;1.00;0.90;;;4.60;99.90;;;;;;5053508;28;20172;-42
2021/12/03 19:20:42;;;;;;;0.70;0.70;;;4.60;99.90;;;;;;5053611;28;20242;-41
2021/12/03 19:23:08;;;;;;;1.27;1.00;;;4.60;99.90;;;;;;5053663;28;20192;-42
2021/12/03 19:25:34;;;;;;;0.50;0.50;;;4.60;99.90;;;;;;5053371;28;20180;-40
2021/12/03 19:28:00;;;;;;;1.20;0.77;;;4.70;99.90;;;;;;5035443;28;20184;-41
2021/12/03 19:30:25;;;;;;;0.70;0.70;;;4.60;99.90;;;;;;5053275;28;20180;-42
2021/12/03 19:32:51;;;;;;;0.67;0.67;;;4.70;99.90;;;;;;5053139;28;20231;-42
2021/12/03 19:35:17;;;;;;;0.80;0.80;;;4.60;99.90;;;;;;5053279;28;20173;-41
2021/12/03 19:37:45;;;;;;;1.10;0.87;;;4.60;99.90;;;;;;5053472;28;20173;-41
2021/12/03 19:40:11;;;;;;;0.60;0.60;;;4.70;99.90;;;;;;5053428;28;20258;-40
2021/12/03 19:42:53;;;;;;;1.73;0.83;;;4.70;99.90;;;;;;5053344;28;20196;-43
2021/12/03 19:45:21;;;;;;;0.63;0.63;;;4.70;99.90;;;;;;5053313;28;20697;-42
2021/12/03 19:52:58;;;;;;;0.70;0.70;;;4.60;99.90;;;;;;5053656;28;20196;-42
2021/12/03 19:55:24;;;;;;;1.00;0.90;;;4.60;99.90;;;;;;5053432;28;20640;-42
2021/12/03 19:57:50;;;;;;;1.00;0.93;;;4.60;99.90;;;;;;5053134;28;20180;-41
2021/12/03 20:00:17;;;;;;;1.77;0.70;;;4.60;99.90;;;;;;5053289;28;20180;-41
2021/12/03 20:02:42;;;;;;;0.73;0.70;;;4.60;99.90;;;;;;5053176;28;20192;-41
2021/12/03 20:05:08;;;;;;;1.10;0.70;;;4.60;99.90;;;;;;5056917;28;20192;-41
2021/12/03 20:07:34;;;;;;;0.60;0.60;;;4.60;99.90;;;;;;5057030;28;20179;-40
2021/12/03 20:10:15;;;;;;;1.13;0.70;;;4.60;99.90;;;;;;5056976;28;20172;-42
2021/12/03 20:12:41;;;;;;;1.03;0.70;;;4.60;99.90;;;;;;5056830;28;20199;-41
2021/12/03 20:15:10;;;;;;;0.60;0.60;;;4.60;99.90;;;;;;5057177;28;20195;-41
2021/12/03 20:20:06;;;;;;;0.77;0.77;;;4.60;99.90;;;;;;5057162;28;20259;-41